This is the latest recevied weather packets stored in our database for station/object W0AVQ. If no packets are shown the sender has not sent any weather packets the latest 10 day(s).
| Time | Temp. | Humidity | Pressure | Rain* | Wind** | Luminosity | Snow |
|---|---|---|---|---|---|---|---|
| 1777409553 | 20.56° C | 94% | 1014.1 hPa | 0 mm | - | 145 W/m² | - |
| 1777409248 | 20.56° C | 94% | 1014 hPa | 0 mm | - | 150 W/m² | - |
| 1777408945 | 20.56° C | 93% | 1013.7 hPa | 0 mm | - | 141 W/m² | - |
| 1777408641 | 20.56° C | 93% | 1014.1 hPa | 0 mm | - | 121 W/m² | - |
| 1777408337 | 20.56° C | 92% | 1013.7 hPa | 1.78 mm | - | 113 W/m² | - |
| 1777408036 | 20.56° C | 89% | 1014.4 hPa | 3.05 mm | - | 83 W/m² | - |
| 1777407734 | 20.56° C | 87% | 1015.3 hPa | 1.27 mm | - | 26 W/m² | - |
| 1777407434 | 21.11° C | 85% | 1016.9 hPa | 0 mm | - | 12 W/m² | - |
| 1777407130 | 20.56° C | 85% | 1017.5 hPa | 0 mm | - | 6 W/m² | - |
| 1777406825 | 21.11° C | 86% | 1016.9 hPa | 0 mm | - | 10 W/m² | - |
| 1777406520 | 21.11° C | 85% | 1016.6 hPa | 0 mm | - | 12 W/m² | - |
| 1777406215 | 21.11° C | 84% | 1016.7 hPa | 0 mm | - | 11 W/m² | - |
| 1777405915 | 21.11° C | 84% | 1016.5 hPa | 0 mm | - | 16 W/m² | - |
| 1777405611 | 21.11° C | 83% | 1016.6 hPa | 0 mm | - | 19 W/m² | - |
| 1777405309 | 21.67° C | 82% | 1016.6 hPa | 0 mm | - | 23 W/m² | - |
| 1777405003 | 21.67° C | 82% | 1016.3 hPa | 0 mm | - | 30 W/m² | - |
| 1777404698 | 21.67° C | 81% | 1015.8 hPa | 0 mm | - | 36 W/m² | - |
| 1777404394 | 21.67° C | 81% | 1016.1 hPa | 0 mm | - | 49 W/m² | - |
| 1777404091 | 21.67° C | 81% | 1015.6 hPa | 0 mm | - | 74 W/m² | - |
| 1777403787 | 21.67° C | 80% | 1015.5 hPa | 0 mm | - | 96 W/m² | - |
| 1777403486 | 21.67° C | 80% | 1015.5 hPa | 0 mm | - | 98 W/m² | - |
| 1777403180 | 21.67° C | 80% | 1015.6 hPa | 0 mm | - | 95 W/m² | - |
| 1777402876 | 21.67° C | 79% | 1015.6 hPa | 0 mm | - | 104 W/m² | - |
| 1777402572 | 22.22° C | 80% | 1015.9 hPa | 0 mm | - | 113 W/m² | - |
| 1777402270 | 22.22° C | 80% | 1016.2 hPa | 0 mm | - | 118 W/m² | - |
* Rain latest hour (hover to see other rain measurements)
** Current wind speed in m/s (hover to see current wind gust speed)